Time;durP1;ratioP1;P1;durP2;ratioP2;P2;SDS_P1;SDS_P2;PMS_P1;PMS_P2;Temp;Humidity;BMP_temperature;BMP_pressure;BME280_temperature;BME280_humidity;BME280_pressure;Samples;Min_cycle;Max_cycle;Signal;HPM_P1;HPM_P2
2022/04/07 00:02:13;;;;;;;13.68;3.13;;;14.50;67.30;;;;;;4995044;28;20089;-77
2022/04/07 00:04:39;;;;;;;11.40;3.35;;;14.50;67.30;;;;;;4996355;28;20057;-78
2022/04/07 00:07:05;;;;;;;13.82;3.08;;;14.40;67.20;;;;;;4979605;28;20054;-79
2022/04/07 00:09:30;;;;;;;13.15;3.17;;;14.40;67.20;;;;;;4996537;28;20046;-78
2022/04/07 00:11:56;;;;;;;10.50;2.55;;;14.40;67.30;;;;;;4996094;28;20492;-80
2022/04/07 00:14:22;;;;;;;11.95;2.55;;;14.40;67.20;;;;;;4996731;28;20108;-80
2022/04/07 00:16:47;;;;;;;11.85;2.88;;;14.40;67.30;;;;;;4996504;28;20344;-78
2022/04/07 00:19:13;;;;;;;9.50;2.40;;;14.40;68.00;;;;;;4996644;28;20057;-79
2022/04/07 00:21:41;;;;;;;14.10;2.97;;;14.30;67.30;;;;;;4995734;28;20050;-78
2022/04/07 00:24:07;;;;;;;12.30;3.03;;;14.40;67.40;;;;;;4995951;28;20050;-78
2022/04/07 00:26:34;;;;;;;11.40;2.83;;;14.40;67.40;;;;;;4993869;28;20054;-78
2022/04/07 00:29:00;;;;;;;9.88;2.55;;;14.30;67.30;;;;;;4996965;28;20048;-80
2022/04/07 00:31:25;;;;;;;8.38;1.90;;;14.30;67.30;;;;;;4996181;28;20039;-77
2022/04/07 00:33:51;;;;;;;13.75;3.50;;;14.30;67.40;;;;;;4995205;28;20065;-77
2022/04/07 00:36:17;;;;;;;10.80;2.17;;;14.30;67.30;;;;;;4996012;28;20356;-78
2022/04/07 00:38:44;;;;;;;14.75;3.00;;;14.30;67.30;;;;;;4979024;28;20116;-77
2022/04/07 00:41:10;;;;;;;15.07;3.92;;;14.30;67.30;;;;;;4981332;28;20042;-77
2022/04/07 00:43:37;;;;;;;15.77;2.80;;;14.30;67.30;;;;;;5015530;28;20100;-80
2022/04/07 00:46:04;;;;;;;11.02;2.88;;;14.30;67.30;;;;;;5014709;28;20054;-79
2022/04/07 00:48:35;;;;;;;9.75;2.75;;;14.30;67.30;;;;;;5015662;28;20132;-80
2022/04/07 00:51:02;;;;;;;13.65;3.28;;;14.30;67.40;;;;;;5013727;28;20045;-77
2022/04/07 00:53:28;;;;;;;10.68;3.03;;;14.30;68.10;;;;;;4995877;28;20042;-78
2022/04/07 00:55:59;;;;;;;13.45;3.33;;;14.20;67.50;;;;;;5011473;28;20172;-78
2022/04/07 00:58:27;;;;;;;12.63;2.88;;;14.20;67.50;;;;;;4995999;28;20409;-77
2022/04/07 01:00:52;;;;;;;10.85;2.78;;;14.20;67.70;;;;;;4978296;28;20124;-79
2022/04/07 01:03:18;;;;;;;11.98;3.03;;;14.20;67.60;;;;;;4979438;28;20050;-78
2022/04/07 01:05:44;;;;;;;14.65;2.55;;;14.20;67.70;;;;;;4978354;28;20124;-78
2022/04/07 01:08:09;;;;;;;13.10;3.42;;;14.20;67.70;;;;;;4995872;28;20042;-79
2022/04/07 01:10:35;;;;;;;11.40;2.67;;;14.20;67.80;;;;;;4997557;28;20526;-77
2022/04/07 01:13:01;;;;;;;13.77;2.80;;;14.20;67.70;;;;;;5018488;28;20046;-77
2022/04/07 01:15:27;;;;;;;10.20;3.05;;;14.20;67.80;;;;;;5020641;28;20064;-77
2022/04/07 01:17:53;;;;;;;12.23;2.70;;;14.20;67.80;;;;;;5021676;28;20046;-79
2022/04/07 01:20:18;;;;;;;13.00;3.15;;;14.20;67.80;;;;;;5004653;28;20065;-78
2022/04/07 01:22:46;;;;;;;10.77;3.17;;;14.20;67.80;;;;;;5006968;28;20061;-79
2022/04/07 01:25:13;;;;;;;13.57;2.60;;;14.20;67.80;;;;;;5002316;28;20042;-79
2022/04/07 01:27:39;;;;;;;15.13;3.13;;;14.20;67.80;;;;;;4984776;28;20089;-76
2022/04/07 01:30:08;;;;;;;16.77;3.47;;;14.20;67.70;;;;;;5002169;28;20042;-80
2022/04/07 01:32:45;;;;;;;8.35;2.60;;;14.20;67.70;;;;;;5007438;28;20050;-77
2022/04/07 01:35:12;;;;;;;17.25;3.60;;;14.20;67.70;;;;;;5001696;28;20038;-77
2022/04/07 01:37:41;;;;;;;13.20;2.88;;;14.20;67.60;;;;;;5002043;28;20450;-78
2022/04/07 01:40:14;;;;;;;11.18;3.22;;;14.20;67.60;;;;;;5001537;28;20089;-78
2022/04/07 01:42:40;;;;;;;11.87;2.77;;;14.20;67.60;;;;;;5015096;28;20051;-78
2022/04/07 01:45:07;;;;;;;15.32;3.17;;;14.20;67.60;;;;;;5004258;28;20058;-79
2022/04/07 01:47:35;;;;;;;19.08;3.88;;;14.20;67.50;;;;;;5021323;28;20483;-78
2022/04/07 01:50:08;;;;;;;15.88;3.20;;;14.20;67.50;;;;;;5021433;28;20113;-78
2022/04/07 01:52:35;;;;;;;15.90;3.50;;;14.20;67.40;;;;;;5008817;28;20090;-80
2022/04/07 01:55:02;;;;;;;14.65;3.17;;;14.10;67.40;;;;;;5001618;28;20101;-77
2022/04/07 01:57:28;;;;;;;15.20;3.35;;;14.20;67.40;;;;;;5001721;28;20061;-77
2022/04/07 01:59:54;;;;;;;13.27;3.15;;;14.10;67.40;;;;;;5001760;28;20054;-79
2022/04/07 02:02:23;;;;;;;16.20;3.53;;;14.20;67.40;;;;;;5014849;28;20489;-77
2022/04/07 02:04:56;;;;;;;16.85;3.72;;;14.10;67.40;;;;;;4985948;28;20054;-77
2022/04/07 02:07:27;;;;;;;10.73;3.28;;;14.10;67.30;;;;;;5001849;28;20042;-78
2022/04/07 02:09:52;;;;;;;9.35;2.90;;;14.10;67.90;;;;;;4984639;28;20129;-79
2022/04/07 02:12:20;;;;;;;19.27;3.92;;;14.10;67.30;;;;;;4977027;28;20145;-78
2022/04/07 02:14:48;;;;;;;13.38;2.95;;;14.10;67.30;;;;;;5001674;28;20331;-76
2022/04/07 02:17:20;;;;;;;12.07;3.40;;;14.10;67.40;;;;;;5001695;28;20042;-77
2022/04/07 02:19:51;;;;;;;19.73;4.35;;;14.10;67.30;;;;;;5001540;28;20078;-78
2022/04/07 02:22:17;;;;;;;16.70;3.70;;;14.10;67.30;;;;;;5010162;28;20055;-77
2022/04/07 02:24:43;;;;;;;12.35;2.78;;;14.10;67.40;;;;;;5018186;28;20362;-79
2022/04/07 02:27:09;;;;;;;14.20;3.85;;;14.10;67.30;;;;;;5018681;28;20081;-77
2022/04/07 02:29:35;;;;;;;13.25;3.67;;;14.10;67.40;;;;;;5018078;28;20085;-76
2022/04/07 02:32:01;;;;;;;16.88;3.65;;;14.10;67.40;;;;;;4991081;28;20077;-77
2022/04/07 02:34:27;;;;;;;19.23;4.45;;;14.10;67.40;;;;;;4997859;28;20054;-76
2022/04/07 02:36:52;;;;;;;16.38;3.63;;;14.10;67.40;;;;;;4997763;28;20050;-77
2022/04/07 02:39:18;;;;;;;21.95;4.22;;;14.10;67.50;;;;;;4998495;28;20193;-76
2022/04/07 02:41:44;;;;;;;14.02;3.70;;;14.10;67.50;;;;;;4981724;28;20133;-79
2022/04/07 02:44:09;;;;;;;14.57;3.70;;;14.10;67.50;;;;;;4998040;28;20053;-77
2022/04/07 02:46:35;;;;;;;18.40;4.20;;;14.10;67.50;;;;;;4997406;28;20054;-76
2022/04/07 02:49:01;;;;;;;16.92;4.05;;;14.10;67.50;;;;;;4997917;28;20056;-78
2022/04/07 02:51:27;;;;;;;17.15;3.33;;;14.00;67.40;;;;;;4997350;28;20442;-77
2022/04/07 02:53:57;;;;;;;14.55;3.38;;;14.10;67.50;;;;;;4997931;28;20125;-78
2022/04/07 02:56:27;;;;;;;13.23;3.60;;;14.10;67.40;;;;;;4998135;28;20054;-78
2022/04/07 02:58:53;;;;;;;13.43;3.85;;;14.00;67.30;;;;;;4997889;28;20105;-78
2022/04/07 03:01:19;;;;;;;16.13;3.72;;;14.00;67.40;;;;;;4997733;28;20062;-76
2022/04/07 03:03:45;;;;;;;16.88;3.80;;;14.00;67.40;;;;;;4997971;28;20450;-77
2022/04/07 03:06:11;;;;;;;14.30;3.40;;;14.00;67.40;;;;;;4964029;28;20130;-78
2022/04/07 03:08:37;;;;;;;15.98;4.00;;;14.00;67.40;;;;;;4997498;28;20082;-77
2022/04/07 03:11:05;;;;;;;15.65;4.05;;;14.00;67.40;;;;;;4980079;28;20097;-76
2022/04/07 03:13:32;;;;;;;15.05;2.95;;;14.00;67.40;;;;;;4996954;28;20125;-79
2022/04/07 03:15:58;;;;;;;13.30;3.55;;;14.00;67.40;;;;;;4997060;28;20046;-75
2022/04/07 03:18:24;;;;;;;14.32;3.60;;;14.00;67.30;;;;;;4997546;28;20350;-79
2022/04/07 03:20:49;;;;;;;19.58;4.00;;;14.00;67.30;;;;;;4997223;28;20061;-77
2022/04/07 03:23:15;;;;;;;9.93;2.72;;;14.00;67.20;;;;;;5015762;28;20559;-79
2022/04/07 03:25:41;;;;;;;13.07;3.75;;;14.00;67.20;;;;;;4999473;28;20030;-77
2022/04/07 03:28:07;;;;;;;19.20;4.75;;;14.00;67.10;;;;;;5016727;28;20438;-77
2022/04/07 03:30:33;;;;;;;16.00;3.30;;;14.00;67.10;;;;;;5016897;28;20038;-76
2022/04/07 03:32:58;;;;;;;15.35;3.88;;;14.00;67.00;;;;;;4995182;28;20470;-78
2022/04/07 03:35:25;;;;;;;10.57;3.00;;;14.00;66.80;;;;;;4996555;28;20135;-78
2022/04/07 03:37:51;;;;;;;13.02;3.35;;;14.00;66.60;;;;;;4980299;28;20050;-78
2022/04/07 03:40:17;;;;;;;15.27;3.75;;;13.90;66.50;;;;;;4996998;28;20057;-78
2022/04/07 03:42:43;;;;;;;18.15;4.07;;;13.90;66.50;;;;;;4997068;28;20054;-77
2022/04/07 03:45:09;;;;;;;14.88;3.45;;;13.90;66.40;;;;;;4979283;28;20121;-77
2022/04/07 03:47:35;;;;;;;14.88;4.03;;;13.90;66.40;;;;;;4979657;28;20046;-78
2022/04/07 03:50:01;;;;;;;16.90;4.07;;;13.90;66.50;;;;;;4996784;28;20051;-77
2022/04/07 03:52:27;;;;;;;18.00;4.00;;;13.90;66.40;;;;;;4996675;28;20124;-76
2022/04/07 03:54:52;;;;;;;14.13;3.40;;;13.90;66.50;;;;;;4997066;28;20442;-77
2022/04/07 03:57:19;;;;;;;14.88;4.13;;;13.90;66.50;;;;;;4997045;28;20458;-77
2022/04/07 03:59:44;;;;;;;16.10;4.00;;;13.90;66.50;;;;;;4979792;28;20088;-77
2022/04/07 04:02:12;;;;;;;19.90;4.55;;;13.90;66.60;;;;;;4996495;28;20051;-78
2022/04/07 04:04:39;;;;;;;17.23;4.20;;;13.90;66.70;;;;;;4996017;28;20093;-78
2022/04/07 04:07:05;;;;;;;18.25;4.40;;;13.90;66.70;;;;;;4979566;28;20050;-76
2022/04/07 04:09:32;;;;;;;21.65;4.15;;;13.90;66.80;;;;;;4996512;28;20050;-77
2022/04/07 04:11:57;;;;;;;21.05;5.13;;;13.90;66.90;;;;;;4996686;28;20043;-78
2022/04/07 04:14:23;;;;;;;19.98;4.85;;;13.90;67.00;;;;;;4979316;28;20480;-77
2022/04/07 04:16:49;;;;;;;16.60;4.13;;;13.80;66.90;;;;;;4995863;28;20061;-77
2022/04/07 04:19:15;;;;;;;16.95;4.55;;;13.90;67.10;;;;;;4996489;28;20129;-78
2022/04/07 04:21:41;;;;;;;17.98;4.85;;;13.80;67.10;;;;;;5002482;28;20125;-77
2022/04/07 04:24:07;;;;;;;18.90;4.22;;;13.90;67.80;;;;;;5015794;28;20448;-78
2022/04/07 04:26:33;;;;;;;19.10;5.03;;;13.80;67.20;;;;;;5015812;28;20054;-76
2022/04/07 04:28:58;;;;;;;19.45;4.80;;;13.80;67.20;;;;;;5015821;28;20136;-77
2022/04/07 04:31:24;;;;;;;17.48;5.50;;;13.90;67.30;;;;;;5011428;28;20089;-77
2022/04/07 04:33:53;;;;;;;24.65;5.15;;;13.80;67.30;;;;;;4995841;28;20050;-78
2022/04/07 04:36:19;;;;;;;18.52;4.82;;;13.80;67.40;;;;;;4995720;28;20052;-77
2022/04/07 04:38:45;;;;;;;21.17;5.25;;;13.80;67.40;;;;;;4996222;28;20473;-77
2022/04/07 04:41:11;;;;;;;22.17;5.47;;;13.80;67.40;;;;;;4998133;28;20055;-78
2022/04/07 04:43:37;;;;;;;19.17;5.53;;;13.80;67.50;;;;;;4998881;28;20121;-76
2022/04/07 04:46:03;;;;;;;22.08;5.63;;;13.80;67.60;;;;;;5014883;28;20064;-79
2022/04/07 04:48:29;;;;;;;26.23;6.35;;;13.80;67.60;;;;;;5015236;28;20057;-78
2022/04/07 04:50:57;;;;;;;22.48;5.95;;;13.80;67.60;;;;;;5015079;28;20338;-80
2022/04/07 04:53:24;;;;;;;22.02;4.70;;;13.80;67.60;;;;;;4996000;28;20053;-79
2022/04/07 04:55:50;;;;;;;20.83;5.72;;;13.90;67.70;;;;;;4995869;28;20050;-77
2022/04/07 04:58:16;;;;;;;19.35;4.72;;;13.80;67.70;;;;;;4996153;28;20061;-77
2022/04/07 05:00:42;;;;;;;20.55;5.25;;;13.80;67.70;;;;;;4995425;28;20053;-77
2022/04/07 05:03:08;;;;;;;23.30;4.90;;;13.80;67.70;;;;;;5013090;28;20049;-77
2022/04/07 05:05:34;;;;;;;12.18;3.45;;;13.80;67.60;;;;;;5015298;28;20117;-77
2022/04/07 05:08:00;;;;;;;16.30;4.72;;;13.80;67.50;;;;;;4981580;28;20050;-80
2022/04/07 05:10:28;;;;;;;17.80;4.47;;;13.80;67.10;;;;;;4997860;28;20042;-83
2022/04/07 05:12:54;;;;;;;15.25;3.08;;;13.90;66.60;;;;;;4999016;28;20046;-76
2022/04/07 05:15:20;;;;;;;10.90;3.20;;;13.90;66.10;;;;;;5007401;28;20112;-75
2022/04/07 05:17:52;;;;;;;12.57;2.63;;;13.90;65.60;;;;;;4997497;28;20069;-76
2022/04/07 05:20:18;;;;;;;12.60;3.47;;;14.00;65.50;;;;;;4995291;28;20046;-79
2022/04/07 05:22:44;;;;;;;10.57;2.65;;;14.00;65.60;;;;;;5000944;28;20034;-76
2022/04/07 05:25:11;;;;;;;10.18;3.00;;;14.00;65.70;;;;;;4978437;28;20068;-79
2022/04/07 05:27:40;;;;;;;11.07;2.53;;;14.00;65.60;;;;;;4995581;28;20046;-80
2022/04/07 05:30:15;;;;;;;11.90;2.92;;;14.10;65.50;;;;;;4995533;28;20042;-80
2022/04/07 05:32:45;;;;;;;10.60;2.47;;;14.20;65.20;;;;;;5000321;28;20042;-78
2022/04/07 05:35:12;;;;;;;8.40;2.30;;;14.50;65.10;;;;;;4962048;28;20049;-82
2022/04/07 05:37:38;;;;;;;8.52;2.00;;;14.70;64.90;;;;;;4995492;28;20065;-78
2022/04/07 05:40:05;;;;;;;7.97;1.65;;;14.80;64.70;;;;;;4995713;28;20057;-78
2022/04/07 05:42:34;;;;;;;13.43;2.55;;;15.00;64.40;;;;;;5002864;28;20434;-79
2022/04/07 05:45:00;;;;;;;10.13;2.10;;;15.00;64.40;;;;;;4997126;28;20054;-78
2022/04/07 05:47:25;;;;;;;10.65;1.80;;;15.10;64.70;;;;;;4997606;28;20108;-80
2022/04/07 05:49:55;;;;;;;5.88;1.55;;;15.20;64.20;;;;;;4997238;28;20042;-79
2022/04/07 05:52:21;;;;;;;10.63;1.38;;;15.20;63.60;;;;;;4987492;28;20077;-78
2022/04/07 05:54:47;;;;;;;6.63;1.17;;;15.30;62.60;;;;;;4995458;28;20070;-78
2022/04/07 05:57:13;;;;;;;8.68;2.05;;;15.40;61.80;;;;;;4996916;28;20108;-78
2022/04/07 05:59:39;;;;;;;6.82;1.00;;;15.40;61.50;;;;;;4981958;28;20054;-78
2022/04/07 06:02:05;;;;;;;6.60;1.42;;;15.50;61.50;;;;;;4982093;28;20454;-75
2022/04/07 06:04:30;;;;;;;4.93;0.95;;;15.60;61.90;;;;;;4965218;28;20486;-78
2022/04/07 06:06:56;;;;;;;6.90;1.08;;;15.70;62.10;;;;;;4981291;28;20088;-78
2022/04/07 06:09:22;;;;;;;7.07;1.00;;;15.70;62.40;;;;;;4981381;28;20047;-74
2022/04/07 06:11:47;;;;;;;9.77;1.30;;;15.70;62.80;;;;;;4998214;28;20354;-79
2022/04/07 06:14:13;;;;;;;8.38;1.33;;;15.80;63.10;;;;;;4981746;28;20513;-76
2022/04/07 06:16:39;;;;;;;9.93;1.27;;;15.80;63.20;;;;;;4982060;28;20054;-76
2022/04/07 06:19:05;;;;;;;12.30;1.38;;;15.80;63.10;;;;;;4998841;28;20042;-78
2022/04/07 06:21:30;;;;;;;8.30;1.20;;;15.90;63.10;;;;;;4981048;28;20058;-78
2022/04/07 06:23:57;;;;;;;8.18;1.00;;;15.90;63.00;;;;;;4997947;28;20043;-75
2022/04/07 06:26:23;;;;;;;10.52;1.35;;;16.00;63.00;;;;;;4981287;28;20050;-76
2022/04/07 06:28:49;;;;;;;3.13;0.82;;;16.00;62.90;;;;;;4981017;28;20042;-78
2022/04/07 06:31:15;;;;;;;6.75;1.05;;;16.00;62.90;;;;;;5000532;28;20057;-75
2022/04/07 06:33:41;;;;;;;7.95;1.40;;;16.00;62.90;;;;;;5018004;28;20057;-78
2022/04/07 06:36:09;;;;;;;6.22;0.73;;;16.00;62.90;;;;;;5018575;28;20128;-80
2022/04/07 06:38:34;;;;;;;7.47;1.02;;;16.00;62.90;;;;;;5000545;28;20042;-79
2022/04/07 06:41:03;;;;;;;6.40;1.10;;;16.00;62.90;;;;;;5000010;28;20470;-82
2022/04/07 06:43:31;;;;;;;5.90;0.90;;;16.00;62.90;;;;;;4965576;28;20053;-80
2022/04/07 06:45:57;;;;;;;5.40;0.68;;;16.00;63.00;;;;;;4997563;28;20377;-79
2022/04/07 06:48:23;;;;;;;10.30;1.15;;;16.00;63.00;;;;;;5000090;28;20058;-80
2022/04/07 06:50:48;;;;;;;7.63;1.17;;;16.10;63.10;;;;;;4997970;28;20128;-81
2022/04/07 06:53:14;;;;;;;6.45;1.23;;;16.10;63.20;;;;;;5015395;28;20049;-80
2022/04/07 06:55:40;;;;;;;6.50;1.10;;;16.10;63.40;;;;;;5000599;28;20045;-80
2022/04/07 06:58:12;;;;;;;8.77;1.17;;;16.10;63.60;;;;;;4993866;28;20081;-79
2022/04/07 07:00:43;;;;;;;4.60;0.80;;;16.10;63.60;;;;;;4980940;28;20050;-80
2022/04/07 07:03:10;;;;;;;10.15;1.05;;;16.10;63.50;;;;;;4997536;28;20059;-80
2022/04/07 07:05:37;;;;;;;4.88;0.88;;;16.10;64.20;;;;;;4993217;28;20466;-83
2022/04/07 07:08:20;;;;;;;7.82;1.20;;;16.20;63.60;;;;;;4993763;28;20460;-82
2022/04/07 07:10:49;;;;;;;6.82;0.95;;;16.20;63.20;;;;;;4999613;28;20038;-83
2022/04/07 07:13:17;;;;;;;7.45;1.08;;;16.20;63.20;;;;;;5016292;28;20449;-82
2022/04/07 07:15:43;;;;;;;9.52;1.27;;;16.20;63.30;;;;;;4983211;28;20048;-82
2022/04/07 07:18:09;;;;;;;4.65;0.90;;;16.20;63.40;;;;;;5016447;28;20041;-82
2022/04/07 07:20:35;;;;;;;7.40;0.82;;;16.20;62.30;;;;;;4999474;28;20052;-82
2022/04/07 07:23:01;;;;;;;5.32;0.80;;;16.20;63.10;;;;;;5001411;28;20054;-80
2022/04/07 07:25:30;;;;;;;5.70;1.20;;;16.20;63.10;;;;;;4976186;28;20050;-82
2022/04/07 07:28:00;;;;;;;4.68;0.70;;;16.30;63.00;;;;;;4980351;28;20054;-79
2022/04/07 07:30:28;;;;;;;3.88;0.60;;;16.30;62.90;;;;;;4964420;28;20042;-79
2022/04/07 07:32:54;;;;;;;5.43;0.88;;;16.40;62.80;;;;;;4993276;28;20470;-81
2022/04/07 07:35:21;;;;;;;6.35;0.68;;;16.40;62.70;;;;;;4999741;28;20077;-79
2022/04/07 07:37:51;;;;;;;6.53;0.70;;;16.50;62.60;;;;;;4995911;28;20116;-81
2022/04/07 07:40:20;;;;;;;4.63;0.77;;;16.50;62.50;;;;;;4996643;28;20105;-80
2022/04/07 07:42:47;;;;;;;4.95;0.77;;;16.60;62.50;;;;;;4996611;28;20046;-81
2022/04/07 07:45:14;;;;;;;4.80;1.08;;;16.60;62.40;;;;;;4996446;28;20470;-79
2022/04/07 07:47:40;;;;;;;3.08;0.60;;;16.70;62.20;;;;;;4997120;28;20050;-80
2022/04/07 07:50:06;;;;;;;2.47;0.70;;;16.80;62.10;;;;;;4999327;28;20049;-82
2022/04/07 07:52:32;;;;;;;4.13;0.80;;;16.90;62.00;;;;;;5015727;28;20096;-80
2022/04/07 07:54:58;;;;;;;3.10;0.60;;;16.90;61.80;;;;;;5016555;28;20129;-81
2022/04/07 07:57:24;;;;;;;3.97;0.73;;;17.00;61.70;;;;;;5021360;28;20080;-81
2022/04/07 07:59:51;;;;;;;3.97;0.70;;;17.00;61.70;;;;;;5035735;28;20068;-80
2022/04/07 08:02:18;;;;;;;3.97;0.60;;;17.10;61.60;;;;;;4976422;28;20082;-78
2022/04/07 08:04:44;;;;;;;3.88;0.57;;;17.20;61.50;;;;;;4996213;28;20046;-79
2022/04/07 08:07:10;;;;;;;4.22;0.73;;;17.20;61.40;;;;;;4979819;28;20093;-80
2022/04/07 08:09:36;;;;;;;4.22;0.98;;;17.20;61.90;;;;;;4996587;28;20450;-80
2022/04/07 08:12:02;;;;;;;4.35;0.82;;;17.30;61.20;;;;;;4999761;28;20115;-82
2022/04/07 08:14:29;;;;;;;2.42;0.70;;;17.30;61.20;;;;;;4998466;28;20470;-81
2022/04/07 08:16:54;;;;;;;2.92;0.70;;;17.30;61.00;;;;;;4982446;28;20060;-80
2022/04/07 08:19:20;;;;;;;6.40;0.85;;;17.30;60.90;;;;;;5014830;28;20038;-81
2022/04/07 08:21:47;;;;;;;4.93;0.82;;;17.30;60.70;;;;;;5016565;28;20050;-80
2022/04/07 08:24:12;;;;;;;5.03;0.60;;;17.40;60.60;;;;;;5007660;28;20054;-79
2022/04/07 08:26:38;;;;;;;8.93;0.90;;;17.30;60.50;;;;;;4978835;28;20061;-82
2022/04/07 08:29:04;;;;;;;4.28;0.80;;;17.30;60.60;;;;;;4989507;28;20462;-81
2022/04/07 08:31:30;;;;;;;3.10;0.75;;;17.40;60.50;;;;;;4996122;28;20465;-81
2022/04/07 08:33:55;;;;;;;5.55;0.80;;;17.30;60.50;;;;;;4991163;28;20384;-80
2022/04/07 08:36:21;;;;;;;4.50;0.85;;;17.30;60.40;;;;;;4967513;28;20052;-81
2022/04/07 08:38:47;;;;;;;6.30;1.23;;;17.30;60.40;;;;;;4990782;28;20068;-79
2022/04/07 08:45:07;;;;;;;4.55;0.93;;;17.30;60.10;;;;;;4995601;28;20196;-82
2022/04/07 08:47:39;;;;;;;2.65;0.43;;;17.20;60.10;;;;;;4963966;28;20046;-80
2022/04/07 08:50:54;;;;;;;9.05;1.30;;;17.20;60.10;;;;;;4995394;28;20053;-81
2022/04/07 08:54:15;;;;;;;;;;;;;;;;;;;;;
2022/04/07 08:57:33;;;;;;;4.03;0.90;;;17.10;60.00;;;;;;4994975;28;20045;-82
2022/04/07 09:04:53;;;;;;;5.40;0.80;;;17.00;59.80;;;;;;4808064;29;20442;-82
2022/04/07 09:08:28;;;;;;;3.30;0.95;;;16.90;59.90;;;;;;4823652;29;20073;-82
2022/04/07 09:12:12;;;;;;;3.55;0.60;;;16.90;60.00;;;;;;4898414;28;20049;-81
2022/04/07 09:22:55;;;;;;;4.40;0.88;;;16.80;59.90;;;;;;4837008;29;20054;-78
2022/04/07 09:25:22;;;;;;;7.65;1.20;;;16.70;59.80;;;;;;4919863;29;20384;-77
2022/04/07 09:27:51;;;;;;;3.85;0.82;;;16.70;59.90;;;;;;4935782;29;20052;-76
2022/04/07 09:30:17;;;;;;;2.80;0.82;;;16.70;59.80;;;;;;4938800;28;20082;-76
2022/04/07 09:32:44;;;;;;;3.35;1.05;;;16.70;59.80;;;;;;4980799;28;20054;-76
2022/04/07 09:35:11;;;;;;;5.70;1.52;;;16.60;59.70;;;;;;4999352;28;20362;-76
2022/04/07 09:37:40;;;;;;;4.88;1.00;;;16.70;59.70;;;;;;4982485;28;20054;-76
2022/04/07 09:40:16;;;;;;;3.15;1.00;;;16.60;59.60;;;;;;4985458;28;20058;-75
2022/04/07 09:42:42;;;;;;;4.75;1.10;;;16.60;59.60;;;;;;5002877;28;20050;-75
2022/04/07 09:45:12;;;;;;;7.55;1.33;;;16.60;59.60;;;;;;4981923;28;20058;-74
2022/04/07 09:47:42;;;;;;;7.68;1.13;;;16.60;59.40;;;;;;4999203;28;20148;-74
2022/04/07 09:50:19;;;;;;;6.25;1.10;;;16.60;59.30;;;;;;4999474;28;20133;-75
2022/04/07 09:52:57;;;;;;;5.95;1.35;;;16.60;59.10;;;;;;4997612;28;20129;-75
2022/04/07 09:55:28;;;;;;;7.53;1.77;;;16.50;59.10;;;;;;4987122;28;20121;-74
2022/04/07 09:57:55;;;;;;;4.95;1.05;;;16.50;59.10;;;;;;4998758;28;20056;-76
2022/04/07 10:00:25;;;;;;;5.78;1.55;;;16.50;59.10;;;;;;4997652;28;20046;-74
2022/04/07 10:02:51;;;;;;;6.38;1.15;;;16.50;59.10;;;;;;4997161;28;20054;-74
2022/04/07 10:05:17;;;;;;;6.43;1.27;;;16.50;59.00;;;;;;4997627;28;20461;-75
2022/04/07 10:07:43;;;;;;;5.65;1.25;;;16.50;58.90;;;;;;5008271;28;20050;-76
2022/04/07 10:10:09;;;;;;;6.80;1.45;;;16.50;58.70;;;;;;5017417;28;20475;-76
2022/04/07 10:12:38;;;;;;;7.20;1.58;;;16.50;58.60;;;;;;5017631;28;20052;-81
2022/04/07 11:05:57;;;;;;;;;;;;;;;;;;;;;
2022/04/07 11:17:02;;;;;;;;;;;;;;;;;;;;;
2022/04/07 11:31:41;;;;;;;9.93;1.60;;;16.00;57.60;;;;;;4781477;30;20329;-81
2022/04/07 11:35:00;;;;;;;;;;;;;;;;;;;;;
2022/04/07 11:41:54;;;;;;;9.57;2.08;;;15.90;55.80;;;;;;4788626;30;20783;-79
2022/04/07 11:44:24;;;;;;;10.82;2.58;;;15.80;55.30;;;;;;4755667;30;20083;-76
2022/04/07 11:46:52;;;;;;;12.23;2.60;;;15.70;55.40;;;;;;4786283;30;20373;-77
2022/04/07 11:49:22;;;;;;;8.55;1.80;;;15.70;55.70;;;;;;4780821;29;20475;-79
2022/04/07 11:52:04;;;;;;;11.50;2.35;;;15.70;56.00;;;;;;4904132;29;20390;-79
2022/04/07 11:54:51;;;;;;;8.38;1.95;;;15.70;56.90;;;;;;4952493;28;20152;-79
2022/04/07 11:57:26;;;;;;;7.90;1.80;;;15.70;56.10;;;;;;4958797;28;20137;-80
2022/04/07 11:59:57;;;;;;;9.45;2.17;;;15.80;56.20;;;;;;4941478;28;20475;-80
2022/04/07 12:02:48;;;;;;;8.43;1.83;;;15.70;56.10;;;;;;4960410;28;20359;-79
2022/04/07 12:05:23;;;;;;;6.30;1.23;;;15.80;56.20;;;;;;4943375;28;20046;-80
2022/04/07 12:08:26;;;;;;;11.38;2.33;;;15.80;56.20;;;;;;4958530;28;20250;-79
2022/04/07 12:10:48;;;;;;;8.45;1.83;;;15.80;56.20;;;;;;4956870;28;20493;-80
2022/04/07 12:13:21;;;;;;;7.47;1.75;;;15.80;56.40;;;;;;4979847;28;20058;-78
2022/04/07 12:15:50;;;;;;;7.25;1.45;;;15.80;56.30;;;;;;4963879;28;20092;-79
2022/04/07 12:18:33;;;;;;;7.93;1.67;;;15.80;56.40;;;;;;4996136;28;20553;-80
2022/04/07 12:21:10;;;;;;;9.05;1.98;;;15.80;56.50;;;;;;4979915;28;20105;-79
2022/04/07 12:23:37;;;;;;;8.15;2.25;;;15.80;56.70;;;;;;4979772;28;20058;-79
2022/04/07 12:26:06;;;;;;;5.88;1.60;;;15.80;56.70;;;;;;4979608;28;20034;-79
2022/04/07 12:28:40;;;;;;;7.13;1.40;;;15.80;56.70;;;;;;4995097;28;20041;-80
2022/04/07 12:31:22;;;;;;;5.28;1.20;;;15.80;56.70;;;;;;4987607;28;20492;-79
2022/04/07 12:33:51;;;;;;;15.70;1.58;;;15.80;56.80;;;;;;4982528;28;20050;-79
2022/04/07 12:36:36;;;;;;;7.50;1.50;;;15.80;56.90;;;;;;5014194;28;20053;-77
2022/04/07 12:39:09;;;;;;;7.60;1.30;;;15.80;56.90;;;;;;5004820;28;20045;-79
2022/04/07 12:41:42;;;;;;;10.47;1.67;;;15.80;57.10;;;;;;5015538;28;20468;-77
2022/04/07 12:44:09;;;;;;;8.57;1.03;;;15.80;57.20;;;;;;5013834;28;20342;-77
2022/04/07 12:46:56;;;;;;;8.20;1.23;;;15.80;57.30;;;;;;5015027;28;20305;-78
2022/04/07 12:49:33;;;;;;;8.90;1.33;;;15.90;57.40;;;;;;5001674;28;20129;-76
2022/04/07 12:52:14;;;;;;;6.05;1.10;;;16.10;58.20;;;;;;4995777;28;20443;-77
2022/04/07 12:55:12;;;;;;;8.02;1.10;;;16.20;57.80;;;;;;4995764;28;20050;-79
2022/04/07 12:57:46;;;;;;;7.22;1.27;;;16.40;58.00;;;;;;4978769;28;20125;-78
2022/04/07 13:00:19;;;;;;;8.63;1.35;;;16.40;57.80;;;;;;4995399;28;20100;-81
2022/04/07 13:02:52;;;;;;;9.35;1.35;;;16.40;57.90;;;;;;4978542;28;20362;-78
2022/04/07 13:05:20;;;;;;;;;;;16.50;58.00;;;;;;5014954;28;20496;-80
2022/04/07 13:07:46;;;;;;;5.18;1.10;;;16.50;58.10;;;;;;4980578;28;19928;-79
2022/04/07 13:10:12;;;;;;;7.65;1.55;;;16.50;58.00;;;;;;4976303;28;20046;-80
2022/04/07 13:12:44;;;;;;;6.30;1.10;;;16.50;58.20;;;;;;4978311;28;20072;-80
2022/04/07 13:15:17;;;;;;;6.60;0.90;;;16.60;58.30;;;;;;4978984;28;20133;-78
2022/04/07 13:17:43;;;;;;;5.38;1.20;;;16.60;58.40;;;;;;5013727;28;20045;-78
2022/04/07 13:20:10;;;;;;;3.90;1.02;;;16.60;58.50;;;;;;5015084;28;20054;-77
2022/04/07 13:22:36;;;;;;;2.85;0.60;;;16.60;58.70;;;;;;4998008;28;20073;-78
2022/04/07 13:25:03;;;;;;;7.82;1.77;;;16.70;58.80;;;;;;5015008;28;20052;-72
2022/04/07 13:27:29;;;;;;;9.50;2.15;;;16.70;59.00;;;;;;5006288;28;20128;-86
2022/04/07 13:29:55;;;;;;;6.10;1.92;;;16.80;59.20;;;;;;5016979;28;20426;-81
2022/04/07 13:32:24;;;;;;;6.63;2.90;;;16.90;59.30;;;;;;5033466;28;20041;-82
2022/04/07 13:34:57;;;;;;;5.65;2.70;;;17.00;59.50;;;;;;5034369;28;20457;-82
2022/04/07 13:37:26;;;;;;;9.32;3.10;;;17.10;59.70;;;;;;4988448;28;20037;-80
2022/04/07 13:39:52;;;;;;;15.55;3.50;;;17.10;59.70;;;;;;4993883;28;20038;-81
2022/04/07 13:42:18;;;;;;;10.52;3.72;;;17.20;59.80;;;;;;5013130;28;20049;-80
2022/04/07 13:44:44;;;;;;;7.35;4.13;;;17.20;59.90;;;;;;5014491;28;20045;-79
2022/04/07 13:47:10;;;;;;;9.52;3.83;;;17.30;60.30;;;;;;4980347;28;20082;-74
2022/04/07 13:49:36;;;;;;;16.15;4.18;;;17.30;60.30;;;;;;5010750;28;20107;-80
2022/04/07 13:52:01;;;;;;;9.98;3.80;;;17.40;60.70;;;;;;5015232;28;20095;-79
2022/04/07 13:54:28;;;;;;;12.02;4.30;;;17.40;61.00;;;;;;4994976;28;20056;-79
2022/04/07 13:56:54;;;;;;;17.67;3.97;;;17.40;61.20;;;;;;4995559;28;20046;-80
2022/04/07 13:59:19;;;;;;;13.10;4.32;;;17.40;61.10;;;;;;4995110;28;20080;-78
2022/04/07 14:01:45;;;;;;;10.57;3.42;;;17.50;61.40;;;;;;4978706;28;20113;-80
2022/04/07 14:04:11;;;;;;;10.43;3.50;;;17.50;61.90;;;;;;4994852;28;20085;-78
2022/04/07 14:06:38;;;;;;;9.80;3.60;;;17.50;62.20;;;;;;4995310;28;20050;-80
2022/04/07 14:09:06;;;;;;;7.70;3.13;;;17.60;62.20;;;;;;4978358;28;20054;-78
2022/04/07 14:11:34;;;;;;;12.35;3.70;;;17.60;62.20;;;;;;4994869;28;20532;-78
2022/04/07 14:14:00;;;;;;;7.30;2.83;;;17.60;62.30;;;;;;4994958;28;20089;-79
2022/04/07 14:16:26;;;;;;;9.38;2.95;;;17.50;62.20;;;;;;4995120;28;20092;-77
2022/04/07 14:18:52;;;;;;;10.32;3.17;;;17.50;62.20;;;;;;4977719;28;20473;-78
2022/04/07 14:21:20;;;;;;;11.27;2.67;;;17.50;62.30;;;;;;4981451;28;20062;-76
2022/04/07 14:23:48;;;;;;;11.10;2.65;;;17.50;62.20;;;;;;4998212;28;20055;-78
2022/04/07 14:26:14;;;;;;;10.73;2.78;;;17.40;61.90;;;;;;4997962;28;20077;-77
2022/04/07 14:28:40;;;;;;;10.65;2.78;;;17.40;62.20;;;;;;4981112;28;20461;-78